Time;durP1;ratioP1;P1;durP2;ratioP2;P2;SDS_P1;SDS_P2;PMS_P1;PMS_P2;Temp;Humidity;BMP_temperature;BMP_pressure;BME280_temperature;BME280_humidity;BME280_pressure;Samples;Min_cycle;Max_cycle;Signal;HPM_P1;HPM_P2
2023/03/29 00:01:40;;;;;;;6.22;2.90;;;;;;;3.94;100.00;99591.53;5095146;28;20066;-60
2023/03/29 00:04:06;;;;;;;5.72;3.08;;;;;;;4.05;100.00;99588.38;5095569;28;20435;-59
2023/03/29 00:06:32;;;;;;;5.65;3.15;;;;;;;3.95;100.00;99584.44;5089515;28;20020;-60
2023/03/29 00:08:58;;;;;;;4.57;2.78;;;;;;;3.95;100.00;99579.94;5093925;28;20023;-60
2023/03/29 00:11:24;;;;;;;7.60;2.90;;;;;;;3.82;100.00;99582.44;5094988;28;20466;-59
2023/03/29 00:13:50;;;;;;;4.22;3.00;;;;;;;3.86;100.00;99583.72;5094522;28;20160;-59
2023/03/29 00:16:16;;;;;;;8.02;3.20;;;;;;;3.83;100.00;99579.63;5094095;28;20501;-59
2023/03/29 00:18:41;;;;;;;4.45;3.00;;;;;;;3.78;100.00;99579.38;5090497;28;20592;-59
2023/03/29 00:21:07;;;;;;;5.47;3.10;;;;;;;3.86;100.00;99570.47;5096829;28;20438;-59
2023/03/29 00:23:32;;;;;;;6.30;3.45;;;;;;;3.79;99.71;99562.44;5096518;28;20425;-60
2023/03/29 00:25:58;;;;;;;4.93;2.97;;;;;;;3.85;100.00;99550.28;5092500;28;20375;-60
2023/03/29 00:28:23;;;;;;;6.03;2.88;;;;;;;3.86;100.00;99552.72;5095851;28;20357;-59
2023/03/29 00:30:51;;;;;;;5.82;3.08;;;;;;;3.84;100.00;99554.75;5096438;28;20030;-59
2023/03/29 00:33:19;;;;;;;7.13;3.22;;;;;;;3.82;100.00;99550.63;5093954;28;20454;-60
2023/03/29 00:35:45;;;;;;;5.55;3.40;;;;;;;3.88;100.00;99556.00;5100978;28;20027;-60
2023/03/29 00:38:10;;;;;;;6.65;3.10;;;;;;;3.95;100.00;99550.75;5094108;28;20032;-59
2023/03/29 00:40:43;;;;;;;5.47;3.22;;;;;;;3.97;100.00;99548.75;5095954;28;20084;-60
2023/03/29 00:43:12;;;;;;;5.57;2.97;;;;;;;3.95;100.00;99542.81;5093342;28;20043;-59
2023/03/29 00:45:37;;;;;;;5.32;3.10;;;;;;;3.93;100.00;99538.69;5099621;28;20043;-59
2023/03/29 00:48:10;;;;;;;8.40;2.92;;;;;;;3.91;99.27;99528.28;5095525;28;20036;-60
2023/03/29 00:50:36;;;;;;;9.23;3.42;;;;;;;3.96;98.17;99525.88;5096200;28;20067;-59
2023/03/29 00:53:14;;;;;;;4.88;3.20;;;;;;;3.96;99.20;99520.56;5093017;28;20317;-59
2023/03/29 00:55:47;;;;;;;6.03;3.03;;;;;;;3.88;98.40;99508.25;5086508;28;20028;-60
2023/03/29 00:58:14;;;;;;;4.50;2.92;;;;;;;3.90;98.40;99508.09;5093538;28;20028;-60
2023/03/29 01:00:54;;;;;;;6.07;3.40;;;;;;;3.88;99.66;99504.81;5098975;28;20043;-59
2023/03/29 01:03:23;;;;;;;6.25;3.08;;;;;;;3.89;100.00;99509.94;5105959;28;20234;-60
2023/03/29 01:05:49;;;;;;;5.57;3.00;;;;;;;3.82;100.00;99503.75;5094820;28;20108;-59
2023/03/29 01:08:18;;;;;;;5.50;3.08;;;;;;;3.85;100.00;99502.53;5096848;28;20027;-60
2023/03/29 01:10:47;;;;;;;5.43;3.30;;;;;;;3.79;100.00;99498.81;5097058;28;20028;-60
2023/03/29 01:13:16;;;;;;;5.57;2.80;;;;;;;3.71;100.00;99491.00;5093914;28;20040;-60
2023/03/29 01:15:43;;;;;;;7.28;3.38;;;;;;;3.62;100.00;99479.72;5090093;28;20023;-60
2023/03/29 01:18:08;;;;;;;5.30;3.13;;;;;;;3.58;100.00;99491.69;5102184;28;20390;-60
2023/03/29 01:20:52;;;;;;;6.63;2.75;;;;;;;3.58;100.00;99491.69;5100446;28;20032;-60
2023/03/29 01:23:31;;;;;;;7.55;3.33;;;;;;;3.53;100.00;99486.16;5102118;28;20039;-59
2023/03/29 01:25:59;;;;;;;9.18;3.40;;;;;;;3.65;100.00;99489.13;5097155;28;20502;-59
2023/03/29 01:28:30;;;;;;;6.30;3.00;;;;;;;3.63;100.00;99483.19;5094042;28;20058;-59
2023/03/29 01:31:00;;;;;;;7.97;3.80;;;;;;;3.66;100.00;99483.59;5082779;28;20039;-60
2023/03/29 01:33:50;;;;;;;6.90;3.40;;;;;;;3.66;100.00;99478.31;5080018;28;20034;-60
2023/03/29 01:36:39;;;;;;;7.13;3.92;;;;;;;3.66;100.00;99478.31;5098522;28;20106;-59
2023/03/29 01:39:05;;;;;;;8.00;3.88;;;;;;;3.70;100.00;99462.03;5085612;28;20027;-59
2023/03/29 01:42:08;;;;;;;9.43;4.15;;;;;;;3.79;100.00;99474.13;5097155;28;20023;-59
2023/03/29 01:44:44;;;;;;;9.27;3.78;;;;;;;3.73;100.00;99466.94;5094780;28;20032;-59
2023/03/29 01:47:16;;;;;;;7.78;3.42;;;;;;;3.73;100.00;99467.78;5081951;28;20028;-60
2023/03/29 01:50:14;;;;;;;7.60;3.40;;;;;;;3.76;100.00;99463.91;5098773;28;20095;-59
2023/03/29 01:52:58;;;;;;;7.63;3.40;;;;;;;3.73;100.00;99459.00;5101347;28;20036;-59
2023/03/29 01:55:27;;;;;;;7.18;3.47;;;;;;;3.76;100.00;99461.25;5086688;28;20038;-59
2023/03/29 01:57:53;;;;;;;6.25;3.47;;;;;;;3.77;100.00;99445.16;5096243;28;20023;-59
2023/03/29 02:00:23;;;;;;;5.93;3.50;;;;;;;3.77;100.00;99431.91;5096223;28;20035;-60
2023/03/29 02:02:48;;;;;;;;;;;;;;;3.82;100.00;99445.41;5096339;28;20043;-59
2023/03/29 02:05:14;;;;;;;5.20;3.08;;;;;;;3.83;100.00;99440.91;5095988;28;19923;-60
2023/03/29 02:07:39;;;;;;;5.45;3.13;;;;;;;3.83;100.00;99441.72;5095606;28;20054;-59
2023/03/29 02:10:06;;;;;;;5.88;3.30;;;;;;;3.82;100.00;99442.75;5099397;28;20047;-60
2023/03/29 02:12:32;;;;;;;5.45;3.45;;;;;;;3.77;100.00;99437.22;5101017;28;20081;-60
2023/03/29 02:14:57;;;;;;;6.55;3.65;;;;;;;3.78;100.00;99438.03;5099252;28;20455;-59
2023/03/29 02:17:24;;;;;;;7.95;3.63;;;;;;;3.79;100.00;99442.31;5097302;28;20108;-59
2023/03/29 02:19:55;;;;;;;5.55;2.97;;;;;;;3.74;100.00;99431.47;5100107;28;20141;-59
2023/03/29 02:22:27;;;;;;;7.00;3.47;;;;;;;3.64;100.00;99422.03;5085834;28;20031;-59
2023/03/29 02:24:55;;;;;;;7.80;3.45;;;;;;;3.66;100.00;99419.19;5094997;28;20416;-60
2023/03/29 02:27:20;;;;;;;4.70;2.85;;;;;;;3.74;100.00;99418.22;5101029;28;20053;-60
2023/03/29 02:29:46;;;;;;;5.28;3.03;;;;;;;3.76;100.00;99430.25;5095313;28;20402;-60
2023/03/29 02:32:16;;;;;;;9.13;3.50;;;;;;;3.78;100.00;99419.47;5099503;28;20019;-60
2023/03/29 02:34:49;;;;;;;5.43;3.60;;;;;;;3.77;100.00;99425.78;5081687;28;20024;-60
2023/03/29 02:37:17;;;;;;;6.32;3.30;;;;;;;3.73;100.00;99424.53;5099174;28;20081;-60
2023/03/29 02:39:43;;;;;;;5.88;3.63;;;;;;;3.73;100.00;99419.25;5080588;28;20306;-60
2023/03/29 02:42:08;;;;;;;5.50;3.30;;;;;;;3.81;100.00;99411.13;5095721;28;20327;-60
2023/03/29 02:44:35;;;;;;;6.82;3.40;;;;;;;3.84;100.00;99416.03;5090814;28;20391;-60
2023/03/29 02:47:22;;;;;;;6.43;3.40;;;;;;;3.86;100.00;99414.81;5077046;28;20090;-60
2023/03/29 02:49:47;;;;;;;5.90;3.70;;;;;;;3.87;100.00;99411.19;5087017;28;20032;-60
2023/03/29 02:52:18;;;;;;;7.60;3.50;;;;;;;3.88;100.00;99406.69;5099154;28;20024;-60
2023/03/29 02:54:44;;;;;;;7.65;3.53;;;;;;;3.89;100.00;99400.34;5081956;28;20031;-60
2023/03/29 02:57:11;;;;;;;7.00;3.80;;;;;;;3.89;100.00;99395.91;5082081;28;20521;-59
2023/03/29 02:59:37;;;;;;;5.05;3.47;;;;;;;3.96;100.00;99409.19;5095745;28;20122;-59
2023/03/29 03:02:04;;;;;;;9.95;3.40;;;;;;;4.01;100.00;99404.09;5098455;28;20590;-60
2023/03/29 03:04:30;;;;;;;5.97;3.13;;;;;;;4.02;100.00;99397.81;5098166;28;20023;-60
2023/03/29 03:06:55;;;;;;;5.93;3.25;;;;;;;4.00;100.00;99401.66;5092251;28;20394;-60
2023/03/29 03:09:21;;;;;;;6.72;3.50;;;;;;;4.03;100.00;99403.91;5091501;28;20043;-60
2023/03/29 03:11:46;;;;;;;7.15;3.45;;;;;;;3.97;100.00;99400.22;5094854;28;20481;-59
2023/03/29 03:14:12;;;;;;;5.65;3.67;;;;;;;3.97;100.00;99394.06;5101049;28;20372;-59
2023/03/29 03:16:37;;;;;;;5.97;3.60;;;;;;;3.94;100.00;99389.16;5096461;28;20028;-59
2023/03/29 03:19:03;;;;;;;5.22;3.33;;;;;;;3.95;100.00;99385.53;5094819;28;20039;-59
2023/03/29 03:21:28;;;;;;;7.03;3.60;;;;;;;3.98;100.00;99390.44;5098754;28;20554;-59
2023/03/29 03:23:54;;;;;;;6.35;3.35;;;;;;;3.98;100.00;99391.25;5099619;28;20421;-59
2023/03/29 03:26:19;;;;;;;6.85;3.70;;;;;;;3.99;100.00;99386.75;5094963;28;20486;-61
2023/03/29 03:28:45;;;;;;;6.22;3.60;;;;;;;4.08;100.00;99393.53;5091355;28;20063;-61
2023/03/29 03:31:12;;;;;;;4.85;3.08;;;;;;;4.15;100.00;99390.94;5096818;28;20066;-61
2023/03/29 03:33:39;;;;;;;5.38;2.95;;;;;;;4.35;100.00;99383.88;5096739;28;20119;-61
2023/03/29 03:36:09;;;;;;;5.95;3.53;;;;;;;4.23;100.00;99383.59;5099001;28;20032;-61
2023/03/29 03:38:35;;;;;;;5.30;3.47;;;;;;;4.23;100.00;99388.09;5093901;28;20023;-59
2023/03/29 03:41:00;;;;;;;5.57;3.58;;;;;;;4.13;100.00;99383.16;5094919;28;20032;-59
2023/03/29 03:43:27;;;;;;;5.82;3.17;;;;;;;4.13;100.00;99387.66;5095493;28;20023;-59
2023/03/29 03:45:52;;;;;;;4.32;2.97;;;;;;;4.11;100.00;99386.00;5095580;28;20020;-59
2023/03/29 03:48:18;;;;;;;6.43;3.58;;;;;;;4.04;100.00;99385.16;5095158;28;20034;-59
2023/03/29 03:50:57;;;;;;;4.85;3.13;;;;;;;4.07;100.00;99382.13;5092715;28;20027;-59
2023/03/29 03:53:24;;;;;;;5.78;2.92;;;;;;;4.10;99.97;99384.38;5099620;28;20038;-59
2023/03/29 03:55:50;;;;;;;5.75;3.35;;;;;;;4.15;99.65;99382.97;5097520;28;20077;-60
2023/03/29 03:58:16;;;;;;;6.03;3.00;;;;;;;4.19;98.65;99370.94;5092618;28;20392;-60
2023/03/29 04:00:41;;;;;;;6.70;3.60;;;;;;;4.19;97.88;99376.25;5098103;28;20119;-60
2023/03/29 04:03:07;;;;;;;4.97;3.00;;;;;;;4.26;97.17;99377.91;5096246;28;20028;-60
2023/03/29 04:05:32;;;;;;;5.07;2.90;;;;;;;4.31;96.49;99372.00;5088717;28;20031;-60
2023/03/29 04:07:59;;;;;;;6.18;3.15;;;;;;;4.34;95.42;99371.59;5095077;28;20031;-60
2023/03/29 04:10:24;;;;;;;4.47;2.75;;;;;;;4.37;94.99;99368.56;5092300;28;20066;-61
2023/03/29 04:12:53;;;;;;;8.13;3.10;;;;;;;4.40;94.59;99362.88;5095109;28;20334;-60
2023/03/29 04:15:19;;;;;;;7.65;3.30;;;;;;;4.41;94.35;99364.50;5096251;28;20039;-60
2023/03/29 04:17:44;;;;;;;5.68;2.88;;;;;;;4.40;94.70;99362.06;5091572;28;20036;-60
2023/03/29 04:20:11;;;;;;;5.50;3.10;;;;;;;4.43;94.33;99359.00;5095331;28;20032;-60
2023/03/29 04:22:37;;;;;;;4.47;2.88;;;;;;;4.44;94.37;99364.13;5097212;28;20046;-59
2023/03/29 04:25:04;;;;;;;4.72;3.00;;;;;;;4.44;94.12;99365.94;5090057;28;20027;-60
2023/03/29 04:27:30;;;;;;;4.28;2.97;;;;;;;4.46;94.74;99362.06;5099865;28;20015;-59
2023/03/29 04:29:55;;;;;;;7.00;3.20;;;;;;;4.45;95.01;99364.94;5099896;28;20038;-59
2023/03/29 04:32:20;;;;;;;7.55;3.20;;;;;;;4.49;94.39;99360.84;5099772;28;20469;-59
2023/03/29 04:34:46;;;;;;;5.72;3.08;;;;;;;4.48;94.58;99356.56;5102552;28;20065;-60
2023/03/29 04:37:11;;;;;;;6.50;3.00;;;;;;;4.47;93.81;99353.09;5097828;28;20035;-60
2023/03/29 04:39:37;;;;;;;5.20;2.70;;;;;;;4.53;93.69;99362.91;5099882;28;20024;-59
2023/03/29 04:42:04;;;;;;;6.55;2.72;;;;;;;4.56;93.75;99361.69;5102264;28;20427;-59
2023/03/29 04:44:32;;;;;;;4.88;2.70;;;;;;;4.60;94.13;99364.78;5099506;28;20114;-59
2023/03/29 04:46:58;;;;;;;8.38;3.50;;;;;;;4.52;94.58;99365.78;5103258;28;20035;-60
2023/03/29 04:49:24;;;;;;;4.60;3.03;;;;;;;4.50;95.14;99365.97;5093579;28;20028;-60
2023/03/29 04:51:49;;;;;;;4.53;2.78;;;;;;;4.56;94.96;99366.19;5101007;28;20077;-60
2023/03/29 04:54:15;;;;;;;4.95;2.90;;;;;;;4.52;94.25;99366.59;5105831;28;20032;-62
2023/03/29 04:56:40;;;;;;;5.30;2.78;;;;;;;4.53;94.53;99362.91;5098395;28;20478;-60
2023/03/29 04:59:06;;;;;;;5.50;3.03;;;;;;;4.54;93.86;99359.25;5096529;28;20036;-59
2023/03/29 05:01:32;;;;;;;5.63;2.90;;;;;;;4.60;93.40;99362.94;5093134;28;20024;-59
2023/03/29 05:03:57;;;;;;;6.65;2.80;;;;;;;4.63;92.86;99361.72;5100090;28;20453;-60
2023/03/29 05:06:23;;;;;;;4.97;3.15;;;;;;;4.63;93.63;99361.72;5097642;28;20765;-60
2023/03/29 05:08:48;;;;;;;6.15;3.00;;;;;;;4.60;92.75;99357.63;5097252;28;20028;-60
2023/03/29 05:11:14;;;;;;;10.35;4.82;;;;;;;4.67;94.06;99358.47;5094142;28;20028;-59
2023/03/29 05:13:39;;;;;;;4.97;3.30;;;;;;;4.62;92.72;99352.09;5101071;28;20105;-60
2023/03/29 05:16:06;;;;;;;5.20;2.60;;;;;;;4.60;93.13;99362.13;5102667;28;20016;-59
2023/03/29 05:18:32;;;;;;;9.10;3.05;;;;;;;4.59;94.12;99361.28;5089898;28;20020;-60
2023/03/29 05:20:58;;;;;;;6.78;3.25;;;;;;;4.61;93.94;99359.25;5101613;28;20476;-59
2023/03/29 05:23:24;;;;;;;6.95;3.30;;;;;;;4.60;94.38;99362.13;5100698;28;20028;-59
2023/03/29 05:25:51;;;;;;;9.68;3.55;;;;;;;4.62;94.04;99360.91;5095970;28;20028;-59
2023/03/29 05:28:17;;;;;;;5.57;3.20;;;;;;;4.64;94.20;99347.41;5097833;28;20028;-59
2023/03/29 05:30:43;;;;;;;5.55;3.22;;;;;;;4.69;94.17;99350.28;5094692;28;20653;-59
2023/03/29 05:33:09;;;;;;;6.75;3.05;;;;;;;4.80;93.73;99356.84;5100829;28;20069;-61
2023/03/29 05:35:34;;;;;;;5.47;2.90;;;;;;;4.74;92.28;99353.97;5090485;28;20036;-60
2023/03/29 05:38:00;;;;;;;4.65;2.70;;;;;;;4.78;92.07;99346.41;5099795;28;20028;-59
2023/03/29 05:40:26;;;;;;;5.07;2.80;;;;;;;4.81;91.32;99353.16;5076372;28;20046;-60
2023/03/29 05:42:52;;;;;;;3.67;2.67;;;;;;;4.83;91.27;99356.44;5097944;28;20032;-59
2023/03/29 05:45:18;;;;;;;4.28;2.78;;;;;;;4.86;90.78;99358.69;5092029;28;20024;-60
2023/03/29 05:47:43;;;;;;;4.22;2.95;;;;;;;4.91;91.09;99357.06;5098456;28;20077;-60
2023/03/29 05:50:10;;;;;;;5.03;2.80;;;;;;;4.94;90.61;99354.00;5094015;28;20020;-60
2023/03/29 05:52:36;;;;;;;6.85;3.08;;;;;;;4.98;90.56;99357.06;5099003;28;20036;-60
2023/03/29 05:55:04;;;;;;;6.25;3.08;;;;;;;4.96;89.86;99362.56;5095111;28;20028;-60
2023/03/29 05:57:30;;;;;;;5.85;2.90;;;;;;;5.05;90.46;99371.19;5092622;28;20024;-60
2023/03/29 05:59:56;;;;;;;4.25;2.85;;;;;;;5.00;90.27;99368.31;5097465;28;20038;-59
2023/03/29 06:02:22;;;;;;;7.53;3.53;;;;;;;5.04;90.44;99366.06;5102746;28;20032;-60
2023/03/29 06:04:47;;;;;;;6.93;3.17;;;;;;;5.03;90.64;99357.28;5092917;28;20024;-59
2023/03/29 06:07:13;;;;;;;7.70;2.90;;;;;;;5.09;90.54;99358.28;5088685;28;20030;-59
2023/03/29 06:09:39;;;;;;;5.88;2.83;;;;;;;5.07;90.32;99352.38;5095600;28;20046;-60
2023/03/29 06:12:05;;;;;;;6.80;3.13;;;;;;;5.12;90.49;99349.94;5092160;28;20579;-60
2023/03/29 06:14:31;;;;;;;5.30;3.05;;;;;;;5.16;91.34;99344.00;5098828;28;20028;-60
2023/03/29 06:16:56;;;;;;;4.47;2.70;;;;;;;5.22;91.01;99339.72;5089186;28;20028;-60
2023/03/29 06:19:22;;;;;;;6.18;2.78;;;;;;;5.27;91.23;99342.56;5097333;28;20028;-60
2023/03/29 06:21:47;;;;;;;7.55;3.15;;;;;;;5.34;90.88;99342.56;5100020;28;20023;-60
2023/03/29 06:24:13;;;;;;;6.15;2.72;;;;;;;5.33;90.25;99341.75;5095226;28;20086;-60
2023/03/29 06:26:38;;;;;;;6.13;3.10;;;;;;;5.41;89.88;99332.75;5093513;28;20051;-60
2023/03/29 06:29:04;;;;;;;4.53;2.88;;;;;;;5.41;89.67;99340.72;5095132;28;20446;-59
2023/03/29 06:31:30;;;;;;;5.88;3.15;;;;;;;5.49;88.87;99334.34;5094539;28;20390;-59
2023/03/29 06:33:57;;;;;;;4.38;2.75;;;;;;;5.46;88.84;99334.78;5095759;28;20436;-59
2023/03/29 06:36:22;;;;;;;5.55;3.15;;;;;;;5.50;88.92;99336.81;5102164;28;20307;-59
2023/03/29 06:38:48;;;;;;;6.90;3.30;;;;;;;5.44;88.34;99336.81;5094819;28;20071;-59
2023/03/29 06:41:13;;;;;;;6.40;3.00;;;;;;;5.55;88.07;99334.38;5097506;28;20028;-59
2023/03/29 06:43:39;;;;;;;6.20;3.22;;;;;;;5.53;87.91;99343.56;5099966;28;20020;-59
2023/03/29 06:46:10;;;;;;;6.05;3.10;;;;;;;5.61;87.85;99338.03;5092009;28;20028;-59
2023/03/29 06:48:36;;;;;;;8.27;3.22;;;;;;;5.67;87.05;99347.84;5097904;28;20035;-60
2023/03/29 06:51:01;;;;;;;5.95;2.75;;;;;;;5.80;87.60;99347.00;5096846;28;20069;-59
2023/03/29 06:53:27;;;;;;;5.68;3.33;;;;;;;5.75;88.16;99350.28;5101162;28;20016;-59
2023/03/29 06:55:52;;;;;;;5.68;2.92;;;;;;;5.82;88.07;99352.94;5092648;28;20028;-59
2023/03/29 06:58:18;;;;;;;5.10;2.97;;;;;;;5.94;87.01;99356.63;5092252;28;20024;-59
2023/03/29 07:00:44;;;;;;;5.55;2.53;;;;;;;5.95;87.05;99350.25;5095787;28;20039;-59
2023/03/29 07:03:13;;;;;;;4.85;2.30;;;;;;;5.98;86.07;99360.47;5093281;28;20028;-59
2023/03/29 07:05:40;;;;;;;4.63;3.05;;;;;;;6.20;86.44;99355.69;5093584;28;20024;-59
2023/03/29 07:10:36;;;;;;;4.55;2.60;;;;;;;6.51;85.01;99371.94;5097931;28;20032;-59
2023/03/29 07:13:04;;;;;;;5.15;2.67;;;;;;;6.69;83.93;99372.06;5095638;28;20063;-59
2023/03/29 07:15:30;;;;;;;7.75;2.67;;;;;;;6.73;82.86;99377.78;5096110;28;20155;-59
2023/03/29 07:17:56;;;;;;;6.30;3.03;;;;;;;7.14;82.14;99385.31;5114596;27;20428;-60
2023/03/29 07:20:21;;;;;;;6.88;2.88;;;;;;;7.12;82.26;99376.72;5097020;28;20027;-60
2023/03/29 07:22:47;;;;;;;9.30;3.20;;;;;;;7.17;81.86;99381.41;5095246;28;20025;-59
2023/03/29 07:25:14;;;;;;;5.38;2.95;;;;;;;7.00;82.35;99381.91;5092201;28;20062;-59
2023/03/29 07:27:41;;;;;;;7.95;3.30;;;;;;;6.90;83.12;99384.25;5086732;28;20020;-59
2023/03/29 07:30:09;;;;;;;6.28;3.15;;;;;;;6.95;83.94;99380.94;5097106;28;20031;-59
2023/03/29 07:32:35;;;;;;;6.03;3.08;;;;;;;6.78;83.68;99385.94;5096859;28;20480;-59
2023/03/29 07:35:03;;;;;;;4.68;2.78;;;;;;;6.73;83.35;99385.78;5089194;28;20444;-59
2023/03/29 07:37:28;;;;;;;6.85;2.90;;;;;;;6.82;84.08;99384.50;5096982;28;20456;-59
2023/03/29 07:39:54;;;;;;;7.68;3.05;;;;;;;6.82;83.77;99382.66;5092635;28;20043;-59
2023/03/29 07:42:19;;;;;;;5.78;2.95;;;;;;;6.97;84.46;99363.69;5092919;28;20027;-59
2023/03/29 07:44:45;;;;;;;6.25;2.95;;;;;;;7.13;82.86;99367.69;5093574;28;20020;-59
2023/03/29 07:47:11;;;;;;;6.07;2.97;;;;;;;7.43;82.33;99359.84;5095370;28;20531;-60
2023/03/29 07:49:36;;;;;;;6.53;3.00;;;;;;;7.48;81.79;99362.66;5091489;28;20053;-60
2023/03/29 07:52:02;;;;;;;4.38;2.63;;;;;;;7.61;80.45;99368.91;5097266;28;20073;-61
2023/03/29 07:54:31;;;;;;;8.18;3.00;;;;;;;7.86;81.30;99368.88;5091059;28;20036;-60
2023/03/29 07:56:56;;;;;;;6.07;2.90;;;;;;;7.93;79.46;99372.31;5094266;28;20184;-60
2023/03/29 07:59:22;;;;;;;5.70;2.65;;;;;;;7.96;79.03;99372.69;5093030;28;20019;-61
2023/03/29 08:01:47;;;;;;;5.32;2.97;;;;;;;8.12;78.05;99367.78;5096795;28;20293;-59
2023/03/29 08:04:13;;;;;;;5.18;3.17;;;;;;;8.00;79.23;99368.53;5094137;28;20385;-59
2023/03/29 08:06:38;;;;;;;6.47;2.85;;;;;;;8.21;78.05;99375.28;5093371;28;20498;-59
2023/03/29 08:09:11;;;;;;;6.93;3.65;;;;;;;8.05;78.64;99375.88;5095569;28;20574;-62
2023/03/29 08:11:38;;;;;;;5.50;2.60;;;;;;;7.92;78.78;99376.81;5098522;28;20066;-59
2023/03/29 08:14:06;;;;;;;5.68;3.00;;;;;;;8.06;79.14;99376.69;5090508;28;20044;-59
2023/03/29 08:16:32;;;;;;;9.88;5.05;;;;;;;8.28;78.99;99375.19;5095322;28;20024;-61
2023/03/29 08:18:58;;;;;;;4.85;2.92;;;;;;;8.06;79.07;99380.16;5087681;28;20185;-59
2023/03/29 08:21:24;;;;;;;38.95;22.63;;;;;;;8.34;78.40;99395.69;5091568;28;20039;-59
2023/03/29 08:23:49;;;;;;;5.75;3.10;;;;;;;8.38;77.80;99391.50;5091716;28;20023;-61
2023/03/29 08:26:15;;;;;;;8.50;4.40;;;;;;;8.53;77.55;99382.31;5088595;28;20085;-60
2023/03/29 08:28:41;;;;;;;6.50;3.75;;;;;;;8.46;77.81;99382.38;5092142;28;20401;-60
2023/03/29 08:31:08;;;;;;;10.75;7.00;;;;;;;8.31;77.96;99385.44;5096115;28;20021;-60
2023/03/29 08:33:34;;;;;;;7.63;3.15;;;;;;;8.27;76.97;99381.59;5090959;28;20421;-59
2023/03/29 08:35:59;;;;;;;5.75;2.92;;;;;;;8.41;76.73;99385.75;5091107;28;20028;-59
2023/03/29 08:38:25;;;;;;;8.27;3.35;;;;;;;8.47;77.16;99367.22;5084478;28;20028;-61
2023/03/29 08:40:51;;;;;;;6.75;2.90;;;;;;;8.29;77.43;99379.50;5097197;28;20035;-59
2023/03/29 08:43:36;;;;;;;13.80;8.18;;;;;;;8.65;77.09;99364.50;5093688;28;20028;-59
2023/03/29 08:46:15;;;;;;;9.80;5.65;;;;;;;8.66;77.15;99367.97;5094378;28;20038;-59
2023/03/29 08:48:43;;;;;;;8.35;3.90;;;;;;;8.89;76.59;99364.59;5090887;28;20107;-59
2023/03/29 08:51:18;;;;;;;9.25;4.25;;;;;;;9.14;75.40;99365.22;5094970;28;20031;-59
2023/03/29 08:53:58;;;;;;;6.82;3.40;;;;;;;8.94;75.22;99367.38;5095682;28;20116;-59
2023/03/29 08:56:26;;;;;;;9.38;4.97;;;;;;;9.06;74.87;99365.53;5085776;28;20605;-59
2023/03/29 08:58:52;;;;;;;6.07;2.70;;;;;;;9.24;75.37;99367.34;5093314;28;20058;-61
2023/03/29 09:01:18;;;;;;;8.77;5.07;;;;;;;9.05;75.53;99369.25;5089075;28;20020;-59
2023/03/29 09:03:48;;;;;;;6.80;3.65;;;;;;;9.07;75.78;99373.34;5088801;28;20035;-61
2023/03/29 09:06:14;;;;;;;4.85;2.85;;;;;;;8.83;76.43;99376.97;5096489;28;20055;-60
2023/03/29 09:08:47;;;;;;;6.85;3.50;;;;;;;9.10;77.64;99382.75;5068768;28;20039;-61
2023/03/29 09:11:26;;;;;;;4.78;2.85;;;;;;;9.08;77.60;99382.16;5093914;28;20028;-60
2023/03/29 09:14:00;;;;;;;6.15;3.30;;;;;;;9.11;77.35;99384.41;5086089;28;20050;-61
2023/03/29 09:16:33;;;;;;;7.07;3.40;;;;;;;9.78;75.16;99380.63;5095615;28;20057;-60
2023/03/29 09:19:15;;;;;;;5.35;2.92;;;;;;;9.33;74.49;99381.19;5089134;28;20024;-60
2023/03/29 09:21:45;;;;;;;6.90;3.30;;;;;;;9.63;75.31;99376.53;5093340;28;20359;-61
2023/03/29 09:24:29;;;;;;;10.25;3.75;;;;;;;9.65;74.85;99373.66;5078111;28;20107;-60
2023/03/29 09:27:14;;;;;;;4.88;2.70;;;;;;;9.53;74.71;99378.16;5098215;28;20043;-60
2023/03/29 09:29:49;;;;;;;7.13;3.47;;;;;;;9.82;74.68;99377.25;5090940;28;20501;-59
2023/03/29 09:32:22;;;;;;;4.32;2.58;;;;;;;9.88;75.13;99378.16;5099718;28;20024;-59
2023/03/29 09:35:08;;;;;;;7.10;2.90;;;;;;;10.05;73.77;99376.41;5085667;28;20027;-61
2023/03/29 09:37:35;;;;;;;7.03;3.00;;;;;;;10.79;72.22;99373.09;5103989;28;20036;-59
2023/03/29 09:40:02;;;;;;;6.40;2.88;;;;;;;10.18;73.81;99378.00;5097456;28;20024;-61
2023/03/29 09:42:28;;;;;;;7.90;3.05;;;;;;;10.66;72.18;99374.19;5078734;28;20255;-61
2023/03/29 09:44:56;;;;;;;5.40;2.60;;;;;;;10.63;72.67;99355.88;5092730;28;20056;-62
2023/03/29 09:47:56;;;;;;;4.63;2.80;;;;;;;11.32;70.21;99369.16;5096137;28;20394;-60
2023/03/29 09:50:32;;;;;;;5.85;2.58;;;;;;;10.84;71.14;99369.69;5095968;28;20039;-60
2023/03/29 09:52:58;;;;;;;5.05;2.60;;;;;;;11.58;70.42;99374.91;5089169;28;20046;-60
2023/03/29 09:55:28;;;;;;;6.93;2.72;;;;;;;11.60;71.65;99372.81;5100549;28;20020;-60
2023/03/29 09:57:56;;;;;;;8.07;3.10;;;;;;;11.59;71.38;99368.50;5097058;28;20640;-60
2023/03/29 10:00:21;;;;;;;7.75;3.00;;;;;;;11.73;72.00;99369.81;5097159;28;20036;-60
2023/03/29 10:02:55;;;;;;;5.90;2.80;;;;;;;10.35;73.23;99362.06;5095248;28;20075;-60
2023/03/29 10:05:23;;;;;;;5.78;2.70;;;;;;;10.41;74.60;99361.13;5103474;28;20075;-59
2023/03/29 10:07:53;;;;;;;6.45;2.88;;;;;;;11.00;71.73;99353.59;5092289;28;20043;-60
2023/03/29 10:10:23;;;;;;;7.13;2.85;;;;;;;10.98;72.13;99346.84;5089790;28;21441;-59
2023/03/29 10:12:50;;;;;;;4.88;2.88;;;;;;;11.65;70.38;99340.66;5091334;28;20039;-59
2023/03/29 10:15:16;;;;;;;6.10;3.47;;;;;;;12.32;70.25;99336.19;5096507;28;20028;-60
2023/03/29 10:17:44;;;;;;;7.70;2.72;;;;;;;12.74;66.11;99339.88;5092637;28;20047;-60
2023/03/29 10:20:16;;;;;;;6.53;3.30;;;;;;;12.35;66.89;99347.25;5095557;28;20035;-60
2023/03/29 10:22:47;;;;;;;4.38;2.22;;;;;;;12.18;69.30;99347.34;5093761;28;20027;-59
2023/03/29 10:25:13;;;;;;;5.45;2.97;;;;;;;12.20;67.66;99339.00;5091463;28;20036;-60
2023/03/29 10:27:40;;;;;;;5.30;2.60;;;;;;;12.52;67.49;99350.66;5096260;28;20444;-60
2023/03/29 10:30:20;;;;;;;5.63;2.75;;;;;;;12.46;69.29;99335.56;5097885;28;20027;-60
2023/03/29 10:32:45;;;;;;;5.22;2.78;;;;;;;12.50;68.67;99333.16;5090145;28;20039;-60
2023/03/29 10:35:18;;;;;;;5.88;2.70;;;;;;;13.00;67.51;99337.44;5096443;28;20039;-60
2023/03/29 10:37:47;;;;;;;6.28;2.90;;;;;;;13.38;67.99;99330.25;5092891;28;20043;-60
2023/03/29 10:40:32;;;;;;;6.05;3.05;;;;;;;13.57;66.85;99331.44;5098307;28;20233;-60
2023/03/29 10:43:10;;;;;;;6.47;2.60;;;;;;;13.28;67.10;99330.16;5095248;28;20028;-60
2023/03/29 10:45:36;;;;;;;5.25;2.67;;;;;;;12.36;71.86;99337.34;5085818;28;20036;-60
2023/03/29 10:48:02;;;;;;;5.60;2.88;;;;;;;13.43;68.94;99327.59;5086690;28;20028;-60
2023/03/29 10:50:33;;;;;;;5.68;2.92;;;;;;;12.87;70.45;99327.09;5094423;28;20114;-59
2023/03/29 10:52:58;;;;;;;7.85;3.00;;;;;;;13.01;70.02;99322.94;5091340;28;20035;-59
2023/03/29 10:55:26;;;;;;;7.13;2.72;;;;;;;13.33;70.36;99324.84;5094203;28;20430;-60
2023/03/29 10:57:59;;;;;;;4.97;2.83;;;;;;;12.66;70.22;99331.47;5090286;28;20027;-60
2023/03/29 11:00:46;;;;;;;8.65;2.97;;;;;;;12.69;70.22;99321.00;5093615;28;20032;-59
2023/03/29 11:03:21;;;;;;;5.75;2.50;;;;;;;12.86;70.04;99337.06;5096816;28;20039;-60
2023/03/29 11:06:01;;;;;;;4.43;2.50;;;;;;;12.82;71.40;99335.13;5094104;28;20027;-60
2023/03/29 11:08:48;;;;;;;8.07;2.58;;;;;;;12.30;71.37;99336.44;5089452;28;20057;-59
2023/03/29 11:11:25;;;;;;;6.03;2.70;;;;;;;12.63;72.29;99324.72;5096122;28;20069;-59
2023/03/29 11:13:59;;;;;;;5.45;2.95;;;;;;;12.42;71.96;99320.19;5095552;28;20481;-60
2023/03/29 11:16:40;;;;;;;5.55;2.70;;;;;;;12.57;73.15;99314.97;5093653;28;20047;-60
2023/03/29 11:19:24;;;;;;;8.32;2.75;;;;;;;12.85;73.06;99318.47;5088137;28;20043;-60
2023/03/29 11:22:12;;;;;;;7.15;2.60;;;;;;;13.11;72.18;99312.25;5093578;28;20384;-60
2023/03/29 11:24:51;;;;;;;6.57;2.95;;;;;;;13.22;71.62;99313.13;5091913;28;20482;-60
2023/03/29 11:27:26;;;;;;;7.28;2.75;;;;;;;13.58;70.50;99316.91;5097423;28;20031;-59
2023/03/29 11:30:16;;;;;;;10.07;2.90;;;;;;;13.16;70.33;99309.59;5090390;28;20040;-60
2023/03/29 11:32:45;;;;;;;7.38;2.83;;;;;;;13.37;70.39;99309.75;5075342;28;20473;-59
2023/03/29 11:35:23;;;;;;;8.90;2.83;;;;;;;13.42;71.60;99303.63;5098581;27;20260;-60
2023/03/29 11:38:01;;;;;;;6.88;2.95;;;;;;;13.47;72.02;99293.69;5088568;28;20028;-60
2023/03/29 11:40:41;;;;;;;13.50;2.88;;;;;;;13.34;71.37;99294.94;5094557;28;20251;-60
2023/03/29 11:43:30;;;;;;;5.65;2.88;;;;;;;13.26;72.43;99298.09;5091499;28;20042;-60
2023/03/29 11:46:18;;;;;;;6.60;3.17;;;;;;;12.80;74.13;99289.63;5091194;28;20269;-60
2023/03/29 11:48:52;;;;;;;7.38;2.92;;;;;;;13.00;73.88;99290.88;5082082;28;20423;-60